X  Luk Metar data     EKVJ Stauning
Temperatur
8°C Temperatur
6°C Duggpunkt
87% Fugtighed



Vind
7 M/S
16 MPT
26 KM/T
14 KNOB



210°
SSV
Nuværende forhold

For det meste skyet For det meste skyet
Tryk 1021.92 (hPa) - 30.18 (inHg)
Sigt 6.2 (mil) - 10 (km)
Lufthavn
Lufthavnskode EKVJ

Lokation: Stauning
Afstand: 14 (km)

Metar:
EKVJ 161350Z 21014KT 9999 BKN012 08/06 Q1022

Tid: 01-16-2020 14:50 CET